Saturday, October 25, 2014, 11:35 PM EDT

KGED, Georgetown Sussex Co Airport

Location: Georgetown, DE, United States Lat: 38.683
Local Time: 11:35 PM EDT ( 3:35 GMT) Lon: -75.367
Time Zone: US/Eastern Elev: 52 ft

Show me the last for .
Show Decoded

2014-10-25 22:54 METAR KGED 260254Z AUTO 21005KT 10SM CLR 12/08 A2972 RMK AO2 SLP063 T01170078
                 58013 $ =
2014-10-25 20:54 METAR KGED 260054Z AUTO 21006KT 10SM CLR 13/08 A2975 RMK AO2 SLP074 T01280078 $
                 =
2014-10-25 19:54 METAR KGED 252354Z AUTO 23007KT 10SM CLR 15/08 A2976 RMK AO2 SLP077 T01500078
                 10211 20144 55009 $ =
2014-10-25 18:54 METAR KGED 252254Z AUTO 22008KT 10SM CLR 16/08 A2975 RMK AO2 SLP075 T01560078 $
                 =
2014-10-25 17:54 METAR KGED 252154Z AUTO 22006KT 10SM CLR 17/08 A2977 RMK AO2 SLP080 T01720083 $
                 =
2014-10-25 16:54 METAR KGED 252054Z AUTO 28007G14KT 10SM CLR 20/07 A2979 RMK AO2 SLP085 T02000067
                 56016 $ =
2014-10-25 15:54 METAR KGED 251954Z AUTO 28009G17KT 10SM CLR 21/06 A2980 RMK AO2 SLP089 T02060061
                 $ =
2014-10-25 14:54 METAR KGED 251854Z AUTO 26008KT 10SM CLR 21/06 A2981 RMK AO2 SLP092 T02060061 $
                 =
2014-10-25 13:54 METAR KGED 251754Z AUTO 21007KT 170V240 10SM CLR 20/07 A2983 RMK AO2 SLP101
                 T02000067 10200 20078 58038 $ =
2014-10-25 12:54 METAR KGED 251654Z AUTO VRB05KT 10SM CLR 19/06 A2988 RMK AO2 SLP119 T01890056 $
                 =
2014-10-25 11:54 METAR KGED 251554Z AUTO VRB04KT 10SM CLR 18/06 A2992 RMK AO2 SLP130 T01780056 $
                 =
2014-10-25 10:54 METAR KGED 251454Z AUTO 29005KT 10SM CLR 17/07 A2994 RMK AO2 SLP139 T01670067
                 58001 $ =
2014-10-25 09:54 METAR KGED 251354Z AUTO 30006KT 10SM CLR 13/06 A2995 RMK AO2 SLP141 T01330061 $
                 =
2014-10-25 07:54 METAR KGED 251154Z AUTO 00000KT 10SM CLR 07/04 A2995 RMK AO2 SLP141 T00720044
                 10111 20056 52007 $ =
2014-10-25 06:54 METAR KGED 251054Z AUTO 00000KT 10SM CLR 07/04 A2994 RMK AO2 SLP138 T00720044 $
                 =
2014-10-25 05:54 METAR KGED 250954Z AUTO 00000KT 10SM CLR 08/04 A2993 RMK AO2 SLP136 T00780039 $
                 =
2014-10-25 04:54 METAR KGED 250854Z AUTO 00000KT 10SM CLR 09/04 A2993 RMK AO2 SLP133 T00940044
                 51002 $ =
2014-10-25 03:54 METAR KGED 250754Z AUTO 00000KT 10SM CLR 10/04 A2993 RMK AO2 SLP133 T01000044 $
                 =
2014-10-25 02:54 METAR KGED 250654Z AUTO VRB03KT 10SM CLR 11/04 A2993 RMK AO2 SLP133 T01060044 $
                 =
2014-10-25 01:54 METAR KGED 250554Z AUTO VRB03KT 10SM CLR 11/04 A2992 RMK AO2 SLP131 T01110044
                 10144 20111 51004 $ =
2014-10-25 00:54 METAR KGED 250454Z AUTO 30003KT 10SM CLR 12/04 A2992 RMK AO2 SLP130 T01170044
                 402060117 $ =
2014-10-24 23:54 METAR KGED 250354Z AUTO 28004KT 10SM CLR 12/04 A2992 RMK AO2 SLP130 T01220044 $
                 =

Support USWX by starting your Amazon purchase here.